sensor_id;sensor_type;location;lat;lon;timestamp;P1;durP1;ratioP1;P2;durP2;ratioP2
16804;SDS011;8520;50.102;20.010;2023-03-05T00:00:50;11.73;;;10.57;;
16804;SDS011;8520;50.102;20.010;2023-03-05T00:03:18;9.70;;;8.90;;
16804;SDS011;8520;50.102;20.010;2023-03-05T00:05:46;9.00;;;8.10;;
16804;SDS011;8520;50.102;20.010;2023-03-05T00:08:16;9.10;;;8.40;;
16804;SDS011;8520;50.102;20.010;2023-03-05T00:10:44;9.23;;;8.40;;
16804;SDS011;8520;50.102;20.010;2023-03-05T00:13:12;9.30;;;8.50;;
16804;SDS011;8520;50.102;20.010;2023-03-05T00:15:40;9.00;;;8.20;;
16804;SDS011;8520;50.102;20.010;2023-03-05T00:18:08;9.03;;;8.10;;
16804;SDS011;8520;50.102;20.010;2023-03-05T00:20:36;10.77;;;9.87;;
16804;SDS011;8520;50.102;20.010;2023-03-05T00:23:04;11.10;;;10.20;;
16804;SDS011;8520;50.102;20.010;2023-03-05T00:25:35;12.07;;;10.03;;
16804;SDS011;8520;50.102;20.010;2023-03-05T00:28:04;10.60;;;9.70;;
16804;SDS011;8520;50.102;20.010;2023-03-05T00:30:32;10.80;;;9.87;;
16804;SDS011;8520;50.102;20.010;2023-03-05T00:33:02;9.97;;;9.07;;
16804;SDS011;8520;50.102;20.010;2023-03-05T00:35:30;10.20;;;9.20;;
16804;SDS011;8520;50.102;20.010;2023-03-05T00:38:00;9.30;;;8.50;;
16804;SDS011;8520;50.102;20.010;2023-03-05T00:40:28;9.90;;;9.00;;
16804;SDS011;8520;50.102;20.010;2023-03-05T00:42:58;10.20;;;9.30;;
16804;SDS011;8520;50.102;20.010;2023-03-05T00:45:26;10.80;;;9.70;;
16804;SDS011;8520;50.102;20.010;2023-03-05T00:47:54;10.37;;;9.37;;
16804;SDS011;8520;50.102;20.010;2023-03-05T00:50:22;8.57;;;7.87;;
16804;SDS011;8520;50.102;20.010;2023-03-05T00:52:50;10.87;;;9.10;;
16804;SDS011;8520;50.102;20.010;2023-03-05T00:55:19;10.70;;;9.70;;
16804;SDS011;8520;50.102;20.010;2023-03-05T00:57:47;11.37;;;10.20;;
16804;SDS011;8520;50.102;20.010;2023-03-05T01:00:17;11.27;;;10.07;;
16804;SDS011;8520;50.102;20.010;2023-03-05T01:02:45;7.93;;;7.20;;
16804;SDS011;8520;50.102;20.010;2023-03-05T01:05:14;9.87;;;8.53;;
16804;SDS011;8520;50.102;20.010;2023-03-05T01:07:42;8.93;;;8.10;;
16804;SDS011;8520;50.102;20.010;2023-03-05T01:10:11;9.53;;;8.60;;
16804;SDS011;8520;50.102;20.010;2023-03-05T01:12:39;10.67;;;8.57;;
16804;SDS011;8520;50.102;20.010;2023-03-05T01:15:07;8.37;;;7.47;;
16804;SDS011;8520;50.102;20.010;2023-03-05T01:17:37;8.60;;;7.10;;
16804;SDS011;8520;50.102;20.010;2023-03-05T01:20:06;7.87;;;6.33;;
16804;SDS011;8520;50.102;20.010;2023-03-05T01:22:35;9.30;;;7.50;;
16804;SDS011;8520;50.102;20.010;2023-03-05T01:25:03;7.20;;;6.50;;
16804;SDS011;8520;50.102;20.010;2023-03-05T01:27:32;8.40;;;6.53;;
16804;SDS011;8520;50.102;20.010;2023-03-05T01:30:00;6.90;;;6.20;;
16804;SDS011;8520;50.102;20.010;2023-03-05T01:32:28;7.73;;;6.50;;
16804;SDS011;8520;50.102;20.010;2023-03-05T01:34:58;7.47;;;6.77;;
16804;SDS011;8520;50.102;20.010;2023-03-05T01:37:27;7.00;;;6.40;;
16804;SDS011;8520;50.102;20.010;2023-03-05T01:39:55;6.70;;;6.10;;
16804;SDS011;8520;50.102;20.010;2023-03-05T01:42:23;8.27;;;6.53;;
16804;SDS011;8520;50.102;20.010;2023-03-05T01:44:58;6.23;;;5.53;;
16804;SDS011;8520;50.102;20.010;2023-03-05T01:47:28;5.83;;;5.20;;
16804;SDS011;8520;50.102;20.010;2023-03-05T01:49:56;4.80;;;4.20;;
16804;SDS011;8520;50.102;20.010;2023-03-05T01:52:29;4.70;;;3.80;;
16804;SDS011;8520;50.102;20.010;2023-03-05T01:55:00;3.70;;;3.40;;
16804;SDS011;8520;50.102;20.010;2023-03-05T01:57:31;3.57;;;3.23;;
16804;SDS011;8520;50.102;20.010;2023-03-05T02:00:04;4.53;;;3.50;;
16804;SDS011;8520;50.102;20.010;2023-03-05T02:02:39;3.70;;;3.30;;
16804;SDS011;8520;50.102;20.010;2023-03-05T02:05:10;3.60;;;3.27;;
16804;SDS011;8520;50.102;20.010;2023-03-05T02:07:42;4.20;;;3.07;;
16804;SDS011;8520;50.102;20.010;2023-03-05T02:10:13;4.13;;;3.73;;
16804;SDS011;8520;50.102;20.010;2023-03-05T02:12:43;4.10;;;3.33;;
16804;SDS011;8520;50.102;20.010;2023-03-05T02:15:12;4.07;;;3.40;;
16804;SDS011;8520;50.102;20.010;2023-03-05T02:17:40;3.07;;;2.77;;
16804;SDS011;8520;50.102;20.010;2023-03-05T02:20:11;5.23;;;3.77;;
16804;SDS011;8520;50.102;20.010;2023-03-05T02:22:43;3.40;;;3.10;;
16804;SDS011;8520;50.102;20.010;2023-03-05T02:25:12;3.50;;;2.93;;
16804;SDS011;8520;50.102;20.010;2023-03-05T02:27:42;3.67;;;3.33;;
16804;SDS011;8520;50.102;20.010;2023-03-05T02:30:16;3.90;;;3.60;;
16804;SDS011;8520;50.102;20.010;2023-03-05T02:32:44;4.57;;;4.03;;
16804;SDS011;8520;50.102;20.010;2023-03-05T02:35:13;4.40;;;4.00;;
16804;SDS011;8520;50.102;20.010;2023-03-05T02:37:42;4.97;;;4.50;;
16804;SDS011;8520;50.102;20.010;2023-03-05T02:40:11;6.03;;;4.83;;
16804;SDS011;8520;50.102;20.010;2023-03-05T02:42:40;4.40;;;3.90;;
16804;SDS011;8520;50.102;20.010;2023-03-05T02:45:11;4.97;;;4.47;;
16804;SDS011;8520;50.102;20.010;2023-03-05T02:47:40;4.73;;;4.20;;
16804;SDS011;8520;50.102;20.010;2023-03-05T02:50:09;4.30;;;3.90;;
16804;SDS011;8520;50.102;20.010;2023-03-05T02:52:38;4.53;;;3.80;;
16804;SDS011;8520;50.102;20.010;2023-03-05T02:55:12;4.13;;;3.80;;
16804;SDS011;8520;50.102;20.010;2023-03-05T02:57:42;5.37;;;3.87;;
16804;SDS011;8520;50.102;20.010;2023-03-05T03:00:11;3.50;;;3.20;;
16804;SDS011;8520;50.102;20.010;2023-03-05T03:02:39;3.90;;;2.97;;
16804;SDS011;8520;50.102;20.010;2023-03-05T03:05:08;3.47;;;2.80;;
16804;SDS011;8520;50.102;20.010;2023-03-05T03:07:36;4.87;;;3.40;;
16804;SDS011;8520;50.102;20.010;2023-03-05T03:10:05;2.90;;;2.70;;
16804;SDS011;8520;50.102;20.010;2023-03-05T03:12:37;4.07;;;3.13;;
16804;SDS011;8520;50.102;20.010;2023-03-05T03:15:05;2.80;;;2.60;;
16804;SDS011;8520;50.102;20.010;2023-03-05T03:17:35;2.90;;;2.50;;
16804;SDS011;8520;50.102;20.010;2023-03-05T03:20:05;3.27;;;2.97;;
16804;SDS011;8520;50.102;20.010;2023-03-05T03:22:35;3.83;;;2.73;;
16804;SDS011;8520;50.102;20.010;2023-03-05T03:25:03;2.97;;;2.60;;
16804;SDS011;8520;50.102;20.010;2023-03-05T03:27:32;3.77;;;2.90;;
16804;SDS011;8520;50.102;20.010;2023-03-05T03:30:02;2.87;;;2.57;;
16804;SDS011;8520;50.102;20.010;2023-03-05T03:32:31;2.90;;;2.70;;
16804;SDS011;8520;50.102;20.010;2023-03-05T03:34:59;3.33;;;3.03;;
16804;SDS011;8520;50.102;20.010;2023-03-05T03:37:27;3.63;;;2.80;;
16804;SDS011;8520;50.102;20.010;2023-03-05T03:39:56;3.73;;;2.80;;
16804;SDS011;8520;50.102;20.010;2023-03-05T03:42:24;3.97;;;2.77;;
16804;SDS011;8520;50.102;20.010;2023-03-05T03:44:52;2.80;;;2.60;;
16804;SDS011;8520;50.102;20.010;2023-03-05T03:47:22;3.17;;;2.87;;
16804;SDS011;8520;50.102;20.010;2023-03-05T03:49:52;3.17;;;2.87;;
16804;SDS011;8520;50.102;20.010;2023-03-05T03:52:21;3.23;;;2.93;;
16804;SDS011;8520;50.102;20.010;2023-03-05T03:54:49;3.00;;;2.60;;
16804;SDS011;8520;50.102;20.010;2023-03-05T03:57:18;5.37;;;2.47;;
16804;SDS011;8520;50.102;20.010;2023-03-05T03:59:46;2.20;;;2.00;;
16804;SDS011;8520;50.102;20.010;2023-03-05T04:02:16;3.17;;;2.40;;
16804;SDS011;8520;50.102;20.010;2023-03-05T04:04:46;3.37;;;2.50;;
16804;SDS011;8520;50.102;20.010;2023-03-05T04:07:14;4.20;;;2.60;;
16804;SDS011;8520;50.102;20.010;2023-03-05T04:09:42;2.73;;;2.43;;
16804;SDS011;8520;50.102;20.010;2023-03-05T04:12:10;2.93;;;2.30;;
16804;SDS011;8520;50.102;20.010;2023-03-05T04:14:44;2.87;;;2.50;;
16804;SDS011;8520;50.102;20.010;2023-03-05T04:17:13;2.50;;;2.30;;
16804;SDS011;8520;50.102;20.010;2023-03-05T04:19:42;2.73;;;2.23;;
16804;SDS011;8520;50.102;20.010;2023-03-05T04:22:13;4.13;;;2.60;;
16804;SDS011;8520;50.102;20.010;2023-03-05T04:24:42;2.97;;;2.43;;
16804;SDS011;8520;50.102;20.010;2023-03-05T04:27:11;2.67;;;2.40;;
16804;SDS011;8520;50.102;20.010;2023-03-05T04:29:39;2.57;;;2.37;;
16804;SDS011;8520;50.102;20.010;2023-03-05T04:32:07;3.93;;;2.50;;
16804;SDS011;8520;50.102;20.010;2023-03-05T04:34:35;3.30;;;2.60;;
16804;SDS011;8520;50.102;20.010;2023-03-05T04:37:04;3.67;;;2.87;;
16804;SDS011;8520;50.102;20.010;2023-03-05T04:39:34;6.83;;;3.00;;
16804;SDS011;8520;50.102;20.010;2023-03-05T04:42:02;4.37;;;2.97;;
16804;SDS011;8520;50.102;20.010;2023-03-05T04:44:30;4.30;;;2.77;;
16804;SDS011;8520;50.102;20.010;2023-03-05T04:46:58;4.00;;;3.20;;
16804;SDS011;8520;50.102;20.010;2023-03-05T04:49:27;3.40;;;3.00;;
16804;SDS011;8520;50.102;20.010;2023-03-05T04:51:56;4.20;;;3.10;;
16804;SDS011;8520;50.102;20.010;2023-03-05T04:54:25;3.83;;;3.20;;
16804;SDS011;8520;50.102;20.010;2023-03-05T04:56:55;3.33;;;2.90;;
16804;SDS011;8520;50.102;20.010;2023-03-05T04:59:23;4.33;;;3.23;;
16804;SDS011;8520;50.102;20.010;2023-03-05T05:01:51;4.43;;;3.57;;
16804;SDS011;8520;50.102;20.010;2023-03-05T05:04:19;4.57;;;3.70;;
16804;SDS011;8520;50.102;20.010;2023-03-05T05:06:47;4.43;;;3.60;;
16804;SDS011;8520;50.102;20.010;2023-03-05T05:09:15;4.37;;;3.57;;
16804;SDS011;8520;50.102;20.010;2023-03-05T05:11:43;5.23;;;3.50;;
16804;SDS011;8520;50.102;20.010;2023-03-05T05:14:13;3.93;;;3.43;;
16804;SDS011;8520;50.102;20.010;2023-03-05T05:16:41;5.03;;;3.90;;
16804;SDS011;8520;50.102;20.010;2023-03-05T05:19:10;4.50;;;4.00;;
16804;SDS011;8520;50.102;20.010;2023-03-05T05:21:40;6.73;;;4.67;;
16804;SDS011;8520;50.102;20.010;2023-03-05T05:24:09;5.33;;;4.23;;
16804;SDS011;8520;50.102;20.010;2023-03-05T05:26:37;5.83;;;4.10;;
16804;SDS011;8520;50.102;20.010;2023-03-05T05:29:05;6.53;;;4.70;;
16804;SDS011;8520;50.102;20.010;2023-03-05T05:31:35;6.33;;;4.20;;
16804;SDS011;8520;50.102;20.010;2023-03-05T05:34:03;5.53;;;4.70;;
16804;SDS011;8520;50.102;20.010;2023-03-05T05:36:31;6.83;;;4.70;;
16804;SDS011;8520;50.102;20.010;2023-03-05T05:38:59;6.03;;;5.27;;
16804;SDS011;8520;50.102;20.010;2023-03-05T05:41:27;7.07;;;5.53;;
16804;SDS011;8520;50.102;20.010;2023-03-05T05:43:56;8.53;;;6.53;;
16804;SDS011;8520;50.102;20.010;2023-03-05T05:46:24;7.50;;;6.30;;
16804;SDS011;8520;50.102;20.010;2023-03-05T05:48:54;8.47;;;7.63;;
16804;SDS011;8520;50.102;20.010;2023-03-05T05:51:22;8.43;;;7.57;;
16804;SDS011;8520;50.102;20.010;2023-03-05T05:53:51;10.87;;;8.50;;
16804;SDS011;8520;50.102;20.010;2023-03-05T05:56:19;9.90;;;8.90;;
16804;SDS011;8520;50.102;20.010;2023-03-05T05:58:47;10.70;;;9.57;;
16804;SDS011;8520;50.102;20.010;2023-03-05T06:01:16;10.00;;;9.00;;
16804;SDS011;8520;50.102;20.010;2023-03-05T06:03:46;11.17;;;10.10;;
16804;SDS011;8520;50.102;20.010;2023-03-05T06:06:17;12.13;;;10.67;;
16804;SDS011;8520;50.102;20.010;2023-03-05T06:08:47;12.47;;;11.27;;
16804;SDS011;8520;50.102;20.010;2023-03-05T06:11:16;13.60;;;12.30;;
16804;SDS011;8520;50.102;20.010;2023-03-05T06:13:45;14.27;;;12.83;;
16804;SDS011;8520;50.102;20.010;2023-03-05T06:16:14;16.20;;;12.97;;
16804;SDS011;8520;50.102;20.010;2023-03-05T06:18:43;14.43;;;13.10;;
16804;SDS011;8520;50.102;20.010;2023-03-05T06:21:12;15.47;;;13.97;;
16804;SDS011;8520;50.102;20.010;2023-03-05T06:23:45;15.80;;;14.40;;
16804;SDS011;8520;50.102;20.010;2023-03-05T06:26:15;15.90;;;14.40;;
16804;SDS011;8520;50.102;20.010;2023-03-05T06:28:44;16.30;;;14.80;;
16804;SDS011;8520;50.102;20.010;2023-03-05T06:31:13;16.67;;;15.00;;
16804;SDS011;8520;50.102;20.010;2023-03-05T06:33:43;16.90;;;15.40;;
16804;SDS011;8520;50.102;20.010;2023-03-05T06:36:12;17.00;;;15.33;;
16804;SDS011;8520;50.102;20.010;2023-03-05T06:38:42;17.73;;;16.07;;
16804;SDS011;8520;50.102;20.010;2023-03-05T06:41:12;17.70;;;16.10;;
16804;SDS011;8520;50.102;20.010;2023-03-05T06:43:43;17.20;;;15.67;;
16804;SDS011;8520;50.102;20.010;2023-03-05T06:46:13;17.03;;;15.50;;
16804;SDS011;8520;50.102;20.010;2023-03-05T06:48:43;17.30;;;15.63;;
16804;SDS011;8520;50.102;20.010;2023-03-05T06:51:12;17.20;;;15.60;;
16804;SDS011;8520;50.102;20.010;2023-03-05T06:53:44;16.73;;;15.13;;
16804;SDS011;8520;50.102;20.010;2023-03-05T06:56:16;16.30;;;14.83;;
16804;SDS011;8520;50.102;20.010;2023-03-05T06:58:46;17.43;;;15.80;;
16804;SDS011;8520;50.102;20.010;2023-03-05T07:01:17;16.60;;;15.13;;
16804;SDS011;8520;50.102;20.010;2023-03-05T07:03:47;16.53;;;15.07;;
16804;SDS011;8520;50.102;20.010;2023-03-05T07:06:16;17.33;;;15.60;;
16804;SDS011;8520;50.102;20.010;2023-03-05T07:08:44;15.83;;;14.43;;
16804;SDS011;8520;50.102;20.010;2023-03-05T07:11:14;17.30;;;15.57;;
16804;SDS011;8520;50.102;20.010;2023-03-05T07:13:44;16.20;;;14.70;;
16804;SDS011;8520;50.102;20.010;2023-03-05T07:16:14;15.30;;;14.00;;
16804;SDS011;8520;50.102;20.010;2023-03-05T07:18:44;16.70;;;15.13;;
16804;SDS011;8520;50.102;20.010;2023-03-05T07:23:43;16.97;;;15.27;;
16804;SDS011;8520;50.102;20.010;2023-03-05T07:26:11;16.03;;;14.37;;
16804;SDS011;8520;50.102;20.010;2023-03-05T07:28:40;16.30;;;14.90;;
16804;SDS011;8520;50.102;20.010;2023-03-05T07:31:10;17.10;;;15.60;;
16804;SDS011;8520;50.102;20.010;2023-03-05T07:33:40;15.83;;;14.37;;
16804;SDS011;8520;50.102;20.010;2023-03-05T07:36:08;15.97;;;14.37;;
16804;SDS011;8520;50.102;20.010;2023-03-05T07:38:37;16.50;;;14.80;;
16804;SDS011;8520;50.102;20.010;2023-03-05T07:41:06;14.80;;;13.60;;
16804;SDS011;8520;50.102;20.010;2023-03-05T07:43:36;17.20;;;15.60;;
16804;SDS011;8520;50.102;20.010;2023-03-05T07:46:06;17.33;;;15.57;;
16804;SDS011;8520;50.102;20.010;2023-03-05T07:48:37;16.60;;;15.20;;
16804;SDS011;8520;50.102;20.010;2023-03-05T07:51:06;17.20;;;15.50;;
16804;SDS011;8520;50.102;20.010;2023-03-05T07:53:35;16.50;;;14.90;;
16804;SDS011;8520;50.102;20.010;2023-03-05T07:56:04;15.30;;;14.10;;
16804;SDS011;8520;50.102;20.010;2023-03-05T07:58:32;15.70;;;14.20;;
16804;SDS011;8520;50.102;20.010;2023-03-05T08:01:01;14.20;;;13.00;;
16804;SDS011;8520;50.102;20.010;2023-03-05T08:03:30;13.63;;;12.43;;
16804;SDS011;8520;50.102;20.010;2023-03-05T08:05:59;13.13;;;12.13;;
16804;SDS011;8520;50.102;20.010;2023-03-05T08:08:32;13.30;;;12.20;;
16804;SDS011;8520;50.102;20.010;2023-03-05T08:11:02;13.00;;;11.70;;
16804;SDS011;8520;50.102;20.010;2023-03-05T08:13:31;13.30;;;12.23;;
16804;SDS011;8520;50.102;20.010;2023-03-05T08:16:02;12.87;;;11.67;;
16804;SDS011;8520;50.102;20.010;2023-03-05T08:18:32;12.43;;;11.33;;
16804;SDS011;8520;50.102;20.010;2023-03-05T08:21:02;12.87;;;11.77;;
16804;SDS011;8520;50.102;20.010;2023-03-05T08:23:31;14.87;;;13.60;;
16804;SDS011;8520;50.102;20.010;2023-03-05T08:26:00;14.30;;;13.10;;
16804;SDS011;8520;50.102;20.010;2023-03-05T08:28:37;14.43;;;13.00;;
16804;SDS011;8520;50.102;20.010;2023-03-05T08:31:07;15.43;;;14.13;;
16804;SDS011;8520;50.102;20.010;2023-03-05T08:33:36;16.63;;;15.17;;
16804;SDS011;8520;50.102;20.010;2023-03-05T08:36:07;17.93;;;16.33;;
16804;SDS011;8520;50.102;20.010;2023-03-05T08:38:36;17.93;;;16.33;;
16804;SDS011;8520;50.102;20.010;2023-03-05T08:41:04;19.70;;;18.00;;
16804;SDS011;8520;50.102;20.010;2023-03-05T08:43:33;20.37;;;18.57;;
16804;SDS011;8520;50.102;20.010;2023-03-05T08:46:01;20.33;;;18.40;;
16804;SDS011;8520;50.102;20.010;2023-03-05T08:48:30;19.50;;;17.77;;
16804;SDS011;8520;50.102;20.010;2023-03-05T08:51:03;18.23;;;16.63;;
16804;SDS011;8520;50.102;20.010;2023-03-05T08:53:33;16.10;;;14.70;;
16804;SDS011;8520;50.102;20.010;2023-03-05T08:56:02;16.33;;;14.90;;
16804;SDS011;8520;50.102;20.010;2023-03-05T08:58:30;13.50;;;12.33;;
16804;SDS011;8520;50.102;20.010;2023-03-05T09:00:58;12.77;;;11.47;;
16804;SDS011;8520;50.102;20.010;2023-03-05T09:03:26;14.50;;;13.33;;
16804;SDS011;8520;50.102;20.010;2023-03-05T09:05:57;16.03;;;14.60;;
16804;SDS011;8520;50.102;20.010;2023-03-05T09:08:26;15.73;;;14.53;;
16804;SDS011;8520;50.102;20.010;2023-03-05T09:10:56;14.77;;;13.57;;
16804;SDS011;8520;50.102;20.010;2023-03-05T09:13:25;15.40;;;14.20;;
16804;SDS011;8520;50.102;20.010;2023-03-05T09:15:53;16.97;;;15.53;;
16804;SDS011;8520;50.102;20.010;2023-03-05T09:18:22;16.70;;;15.30;;
16804;SDS011;8520;50.102;20.010;2023-03-05T09:20:50;17.27;;;15.77;;
16804;SDS011;8520;50.102;20.010;2023-03-05T09:23:18;16.93;;;15.40;;
16804;SDS011;8520;50.102;20.010;2023-03-05T09:25:47;15.37;;;13.87;;
16804;SDS011;8520;50.102;20.010;2023-03-05T09:28:17;14.50;;;13.20;;
16804;SDS011;8520;50.102;20.010;2023-03-05T09:30:45;15.03;;;13.83;;
16804;SDS011;8520;50.102;20.010;2023-03-05T09:33:13;17.10;;;15.50;;
16804;SDS011;8520;50.102;20.010;2023-03-05T09:35:41;15.93;;;14.60;;
16804;SDS011;8520;50.102;20.010;2023-03-05T09:38:09;15.93;;;14.53;;
16804;SDS011;8520;50.102;20.010;2023-03-05T09:40:40;15.60;;;14.40;;
16804;SDS011;8520;50.102;20.010;2023-03-05T09:43:20;16.47;;;15.23;;
16804;SDS011;8520;50.102;20.010;2023-03-05T09:45:57;17.10;;;15.77;;
16804;SDS011;8520;50.102;20.010;2023-03-05T09:48:37;17.87;;;16.37;;
16804;SDS011;8520;50.102;20.010;2023-03-05T09:51:16;19.40;;;17.50;;
16804;SDS011;8520;50.102;20.010;2023-03-05T09:53:53;18.07;;;16.57;;
16804;SDS011;8520;50.102;20.010;2023-03-05T09:56:29;18.83;;;17.13;;
16804;SDS011;8520;50.102;20.010;2023-03-05T09:59:03;20.07;;;18.37;;
16804;SDS011;8520;50.102;20.010;2023-03-05T10:01:41;20.20;;;18.33;;
16804;SDS011;8520;50.102;20.010;2023-03-05T10:04:12;19.87;;;18.00;;
16804;SDS011;8520;50.102;20.010;2023-03-05T10:06:46;21.67;;;19.77;;
16804;SDS011;8520;50.102;20.010;2023-03-05T10:09:19;22.10;;;20.10;;
16804;SDS011;8520;50.102;20.010;2023-03-05T10:11:59;21.97;;;20.07;;
16804;SDS011;8520;50.102;20.010;2023-03-05T10:14:34;21.53;;;19.70;;
16804;SDS011;8520;50.102;20.010;2023-03-05T10:20:21;23.97;;;21.87;;
16804;SDS011;8520;50.102;20.010;2023-03-05T10:23:12;23.50;;;21.23;;
16804;SDS011;8520;50.102;20.010;2023-03-05T10:25:55;23.60;;;21.33;;
16804;SDS011;8520;50.102;20.010;2023-03-05T10:28:33;22.80;;;20.80;;
16804;SDS011;8520;50.102;20.010;2023-03-05T10:34:05;19.60;;;17.97;;
16804;SDS011;8520;50.102;20.010;2023-03-05T10:37:03;20.80;;;19.00;;
16804;SDS011;8520;50.102;20.010;2023-03-05T10:39:55;20.83;;;19.07;;
16804;SDS011;8520;50.102;20.010;2023-03-05T10:42:33;20.97;;;19.17;;
16804;SDS011;8520;50.102;20.010;2023-03-05T10:45:11;18.73;;;17.13;;
16804;SDS011;8520;50.102;20.010;2023-03-05T10:47:46;20.17;;;18.27;;
16804;SDS011;8520;50.102;20.010;2023-03-05T10:50:19;18.23;;;16.63;;
16804;SDS011;8520;50.102;20.010;2023-03-05T10:52:50;18.30;;;16.70;;
16804;SDS011;8520;50.102;20.010;2023-03-05T10:55:30;19.03;;;17.13;;
16804;SDS011;8520;50.102;20.010;2023-03-05T10:57:59;16.90;;;15.33;;
16804;SDS011;8520;50.102;20.010;2023-03-05T11:00:36;17.50;;;15.97;;
16804;SDS011;8520;50.102;20.010;2023-03-05T11:03:06;17.00;;;15.40;;
16804;SDS011;8520;50.102;20.010;2023-03-05T11:05:43;18.50;;;16.60;;
16804;SDS011;8520;50.102;20.010;2023-03-05T11:08:23;17.60;;;16.17;;
16804;SDS011;8520;50.102;20.010;2023-03-05T11:13:51;18.27;;;16.53;;
16804;SDS011;8520;50.102;20.010;2023-03-05T11:16:22;19.50;;;17.50;;
16804;SDS011;8520;50.102;20.010;2023-03-05T11:22:03;21.53;;;19.53;;
16804;SDS011;8520;50.102;20.010;2023-03-05T11:24:33;23.60;;;21.27;;
16804;SDS011;8520;50.102;20.010;2023-03-05T11:27:19;23.50;;;21.30;;
16804;SDS011;8520;50.102;20.010;2023-03-05T11:29:49;26.80;;;24.00;;
16804;SDS011;8520;50.102;20.010;2023-03-05T11:32:19;26.67;;;24.27;;
16804;SDS011;8520;50.102;20.010;2023-03-05T11:34:53;28.83;;;26.03;;
16804;SDS011;8520;50.102;20.010;2023-03-05T11:37:24;29.47;;;26.77;;
16804;SDS011;8520;50.102;20.010;2023-03-05T11:40:04;24.63;;;22.53;;
16804;SDS011;8520;50.102;20.010;2023-03-05T11:42:43;27.47;;;25.07;;
16804;SDS011;8520;50.102;20.010;2023-03-05T11:45:15;27.60;;;25.27;;
16804;SDS011;8520;50.102;20.010;2023-03-05T11:47:46;28.87;;;26.23;;
16804;SDS011;8520;50.102;20.010;2023-03-05T11:50:20;26.73;;;24.57;;
16804;SDS011;8520;50.102;20.010;2023-03-05T11:52:50;25.40;;;23.20;;
16804;SDS011;8520;50.102;20.010;2023-03-05T11:55:23;24.40;;;22.53;;
16804;SDS011;8520;50.102;20.010;2023-03-05T11:58:02;24.90;;;22.80;;
16804;SDS011;8520;50.102;20.010;2023-03-05T12:00:40;24.20;;;22.20;;
16804;SDS011;8520;50.102;20.010;2023-03-05T12:03:13;18.40;;;16.90;;
16804;SDS011;8520;50.102;20.010;2023-03-05T12:05:45;15.47;;;14.27;;
16804;SDS011;8520;50.102;20.010;2023-03-05T12:08:17;13.17;;;12.27;;
16804;SDS011;8520;50.102;20.010;2023-03-05T12:10:51;13.43;;;12.57;;
16804;SDS011;8520;50.102;20.010;2023-03-05T12:13:21;13.93;;;12.83;;
16804;SDS011;8520;50.102;20.010;2023-03-05T12:16:07;14.60;;;13.40;;
16804;SDS011;8520;50.102;20.010;2023-03-05T12:18:50;14.40;;;13.30;;
16804;SDS011;8520;50.102;20.010;2023-03-05T12:21:28;14.40;;;13.33;;
16804;SDS011;8520;50.102;20.010;2023-03-05T12:24:00;14.77;;;13.47;;
16804;SDS011;8520;50.102;20.010;2023-03-05T12:26:52;15.47;;;14.17;;
16804;SDS011;8520;50.102;20.010;2023-03-05T12:29:26;15.30;;;14.10;;
16804;SDS011;8520;50.102;20.010;2023-03-05T12:31:56;14.60;;;13.47;;
16804;SDS011;8520;50.102;20.010;2023-03-05T12:37:55;16.27;;;14.87;;
16804;SDS011;8520;50.102;20.010;2023-03-05T12:40:50;16.47;;;14.80;;
16804;SDS011;8520;50.102;20.010;2023-03-05T12:43:28;15.50;;;14.07;;
16804;SDS011;8520;50.102;20.010;2023-03-05T12:48:51;15.13;;;13.90;;
16804;SDS011;8520;50.102;20.010;2023-03-05T12:51:33;15.10;;;13.80;;
16804;SDS011;8520;50.102;20.010;2023-03-05T12:57:01;14.83;;;13.53;;
16804;SDS011;8520;50.102;20.010;2023-03-05T12:59:37;15.00;;;13.60;;
16804;SDS011;8520;50.102;20.010;2023-03-05T13:02:18;15.30;;;14.00;;
16804;SDS011;8520;50.102;20.010;2023-03-05T13:04:49;14.13;;;12.83;;
16804;SDS011;8520;50.102;20.010;2023-03-05T13:07:24;13.90;;;12.70;;
16804;SDS011;8520;50.102;20.010;2023-03-05T13:09:54;13.67;;;12.47;;
16804;SDS011;8520;50.102;20.010;2023-03-05T13:12:23;14.03;;;12.83;;
16804;SDS011;8520;50.102;20.010;2023-03-05T13:14:55;16.07;;;13.93;;
16804;SDS011;8520;50.102;20.010;2023-03-05T13:17:30;13.47;;;12.27;;
16804;SDS011;8520;50.102;20.010;2023-03-05T13:20:35;14.30;;;12.80;;
16804;SDS011;8520;50.102;20.010;2023-03-05T13:23:17;13.30;;;12.20;;
16804;SDS011;8520;50.102;20.010;2023-03-05T13:26:00;14.13;;;11.50;;
16804;SDS011;8520;50.102;20.010;2023-03-05T13:28:30;12.70;;;11.70;;
16804;SDS011;8520;50.102;20.010;2023-03-05T13:30:59;12.83;;;11.53;;
16804;SDS011;8520;50.102;20.010;2023-03-05T13:33:31;11.97;;;10.83;;
16804;SDS011;8520;50.102;20.010;2023-03-05T13:36:01;11.37;;;10.40;;
16804;SDS011;8520;50.102;20.010;2023-03-05T13:38:32;11.90;;;10.70;;
16804;SDS011;8520;50.102;20.010;2023-03-05T13:41:06;11.30;;;10.20;;
16804;SDS011;8520;50.102;20.010;2023-03-05T13:43:46;11.60;;;10.50;;
16804;SDS011;8520;50.102;20.010;2023-03-05T13:46:21;10.47;;;9.57;;
16804;SDS011;8520;50.102;20.010;2023-03-05T13:48:51;10.30;;;9.30;;
16804;SDS011;8520;50.102;20.010;2023-03-05T13:51:19;9.57;;;8.77;;
16804;SDS011;8520;50.102;20.010;2023-03-05T13:53:47;9.50;;;8.60;;
16804;SDS011;8520;50.102;20.010;2023-03-05T13:56:18;10.00;;;9.00;;
16804;SDS011;8520;50.102;20.010;2023-03-05T13:58:49;9.97;;;8.97;;
16804;SDS011;8520;50.102;20.010;2023-03-05T14:01:26;9.73;;;8.93;;
16804;SDS011;8520;50.102;20.010;2023-03-05T14:03:57;10.20;;;8.57;;
16804;SDS011;8520;50.102;20.010;2023-03-05T14:06:27;10.00;;;9.10;;
16804;SDS011;8520;50.102;20.010;2023-03-05T14:09:01;9.07;;;8.17;;
16804;SDS011;8520;50.102;20.010;2023-03-05T14:11:33;10.50;;;9.13;;
16804;SDS011;8520;50.102;20.010;2023-03-05T14:14:06;10.87;;;9.77;;
16804;SDS011;8520;50.102;20.010;2023-03-05T14:16:36;11.17;;;10.07;;
16804;SDS011;8520;50.102;20.010;2023-03-05T14:19:04;11.20;;;10.10;;
16804;SDS011;8520;50.102;20.010;2023-03-05T14:21:41;11.73;;;10.53;;
16804;SDS011;8520;50.102;20.010;2023-03-05T14:24:12;9.93;;;8.33;;
16804;SDS011;8520;50.102;20.010;2023-03-05T14:26:49;10.50;;;9.37;;
16804;SDS011;8520;50.102;20.010;2023-03-05T14:29:20;8.90;;;8.10;;
16804;SDS011;8520;50.102;20.010;2023-03-05T14:31:50;5.30;;;4.80;;
16804;SDS011;8520;50.102;20.010;2023-03-05T14:34:21;5.77;;;4.70;;
16804;SDS011;8520;50.102;20.010;2023-03-05T14:36:53;5.77;;;5.17;;
16804;SDS011;8520;50.102;20.010;2023-03-05T14:39:30;5.17;;;4.67;;
16804;SDS011;8520;50.102;20.010;2023-03-05T14:45:14;5.70;;;5.20;;
16804;SDS011;8520;50.102;20.010;2023-03-05T14:47:43;5.97;;;5.07;;
16804;SDS011;8520;50.102;20.010;2023-03-05T14:50:14;5.67;;;5.10;;
16804;SDS011;8520;50.102;20.010;2023-03-05T14:52:42;5.70;;;5.17;;
16804;SDS011;8520;50.102;20.010;2023-03-05T14:55:13;5.60;;;4.80;;
16804;SDS011;8520;50.102;20.010;2023-03-05T14:57:43;5.17;;;4.67;;
16804;SDS011;8520;50.102;20.010;2023-03-05T15:00:16;5.17;;;4.47;;
16804;SDS011;8520;50.102;20.010;2023-03-05T15:02:45;5.43;;;4.83;;
16804;SDS011;8520;50.102;20.010;2023-03-05T15:05:13;5.97;;;4.97;;
16804;SDS011;8520;50.102;20.010;2023-03-05T15:07:42;6.00;;;5.43;;
16804;SDS011;8520;50.102;20.010;2023-03-05T15:10:11;5.23;;;4.83;;
16804;SDS011;8520;50.102;20.010;2023-03-05T15:12:43;6.07;;;5.47;;
16804;SDS011;8520;50.102;20.010;2023-03-05T15:15:12;5.53;;;4.80;;
16804;SDS011;8520;50.102;20.010;2023-03-05T15:17:41;6.20;;;5.50;;
16804;SDS011;8520;50.102;20.010;2023-03-05T15:20:13;5.87;;;5.03;;
16804;SDS011;8520;50.102;20.010;2023-03-05T15:22:44;5.27;;;4.77;;